Time;durP1;ratioP1;P1;durP2;ratioP2;P2;SDS_P1;SDS_P2;PMS_P1;PMS_P2;Temp;Humidity;BMP_temperature;BMP_pressure;BME280_temperature;BME280_humidity;BME280_pressure;Samples;Min_cycle;Max_cycle;Signal;HPM_P1;HPM_P2
2022/08/20 11:00:18;;;;;;;5.40;1.50;;;23.20;97.70;;;;;;5086926;27;20897;-70
2022/08/20 11:02:44;;;;;;;5.70;2.10;;;23.10;95.20;;;;;;5086925;28;20028;-74
2022/08/20 11:05:09;;;;;;;5.03;1.35;;;23.70;95.20;;;;;;5069719;28;20032;-73
2022/08/20 11:07:38;;;;;;;5.53;1.25;;;23.00;94.30;;;;;;5067262;28;20051;-72
2022/08/20 11:10:06;;;;;;;7.18;1.55;;;23.20;93.90;;;;;;5066582;28;20469;-71
2022/08/20 11:12:32;;;;;;;6.68;1.50;;;23.20;93.30;;;;;;5078375;28;20020;-70
2022/08/20 11:14:57;;;;;;;7.05;2.15;;;23.20;92.00;;;;;;5086882;28;20542;-71
2022/08/20 11:17:27;;;;;;;7.28;1.60;;;23.50;91.50;;;;;;5086710;28;20390;-71
2022/08/20 11:19:53;;;;;;;5.95;1.38;;;23.10;91.30;;;;;;5087037;28;20047;-71
2022/08/20 11:22:19;;;;;;;3.90;1.20;;;21.60;90.70;;;;;;5069909;28;20118;-71
2022/08/20 11:24:45;;;;;;;4.30;1.67;;;23.60;90.50;;;;;;5066758;28;20025;-71
2022/08/20 11:27:18;;;;;;;5.82;1.63;;;23.60;90.30;;;;;;5066036;28;20127;-73
2022/08/20 11:29:44;;;;;;;3.58;1.17;;;23.70;89.70;;;;;;5066874;28;20117;-74
2022/08/20 11:32:10;;;;;;;7.60;1.42;;;24.50;89.00;;;;;;5066055;28;20505;-71
2022/08/20 11:34:35;;;;;;;9.85;1.52;;;25.00;88.50;;;;;;5066690;28;20477;-72
2022/08/20 11:37:01;;;;;;;3.83;1.27;;;24.80;86.80;;;;;;5066235;28;20039;-72
2022/08/20 11:39:27;;;;;;;8.43;1.48;;;24.10;86.60;;;;;;5065948;28;20029;-73
2022/08/20 11:41:52;;;;;;;4.45;1.27;;;24.70;86.70;;;;;;5066452;28;20124;-73
2022/08/20 11:44:18;;;;;;;5.72;1.70;;;24.20;86.20;;;;;;5065845;28;20032;-73
2022/08/20 11:46:43;;;;;;;4.88;1.27;;;25.00;86.00;;;;;;5066185;28;20420;-73
2022/08/20 11:49:09;;;;;;;7.05;1.50;;;24.40;84.80;;;;;;5066278;28;20040;-73
2022/08/20 11:51:36;;;;;;;4.00;0.98;;;24.40;83.70;;;;;;5066279;28;20378;-73
2022/08/20 11:54:02;;;;;;;4.65;1.30;;;24.10;83.60;;;;;;5066037;28;20025;-73
2022/08/20 11:56:28;;;;;;;6.75;1.80;;;23.90;82.90;;;;;;5065123;28;20024;-74
2022/08/20 11:58:53;;;;;;;4.40;1.00;;;24.10;81.50;;;;;;5065576;28;20052;-74
2022/08/20 12:01:19;;;;;;;6.60;1.45;;;23.90;81.40;;;;;;5064031;28;20029;-74
2022/08/20 12:03:44;;;;;;;8.98;1.27;;;24.10;81.20;;;;;;5066256;28;20020;-73
2022/08/20 12:06:10;;;;;;;4.95;1.85;;;24.20;80.80;;;;;;5065430;28;20040;-73
2022/08/20 12:08:35;;;;;;;4.45;0.90;;;24.30;79.90;;;;;;5065868;28;20048;-73
2022/08/20 12:11:02;;;;;;;8.30;1.65;;;23.70;79.60;;;;;;5056111;28;20106;-73
2022/08/20 12:13:31;;;;;;;7.43;1.55;;;24.40;80.50;;;;;;5071000;28;20454;-73
2022/08/20 12:15:57;;;;;;;4.40;0.90;;;23.70;80.30;;;;;;5072522;28;20377;-74
2022/08/20 12:18:22;;;;;;;7.15;1.10;;;23.50;79.40;;;;;;5072199;28;20029;-73
2022/08/20 12:20:48;;;;;;;3.05;0.95;;;23.50;79.80;;;;;;5072698;28;20060;-74
2022/08/20 12:23:14;;;;;;;3.25;1.20;;;24.40;79.80;;;;;;5071903;28;20344;-74
2022/08/20 12:25:39;;;;;;;7.18;1.38;;;23.70;79.20;;;;;;5065956;28;20039;-74
2022/08/20 12:28:07;;;;;;;4.10;1.05;;;23.60;79.00;;;;;;5070619;28;20043;-74
2022/08/20 12:30:33;;;;;;;6.57;1.42;;;23.80;79.00;;;;;;5071976;28;20017;-74
2022/08/20 12:32:59;;;;;;;5.60;1.38;;;24.10;78.30;;;;;;5066850;28;20063;-74
2022/08/20 12:35:25;;;;;;;5.68;1.10;;;24.20;78.00;;;;;;5069446;28;20042;-72
2022/08/20 12:37:51;;;;;;;5.95;1.50;;;24.30;77.80;;;;;;5070827;28;20025;-71
2022/08/20 12:40:27;;;;;;;6.45;1.25;;;24.60;76.80;;;;;;5071529;28;20043;-72
2022/08/20 12:42:53;;;;;;;10.73;2.10;;;24.60;77.30;;;;;;5071718;28;20054;-72
2022/08/20 12:45:19;;;;;;;6.38;1.50;;;25.80;76.20;;;;;;5063660;28;20029;-71
2022/08/20 12:47:46;;;;;;;4.47;0.80;;;26.20;76.30;;;;;;5067349;28;20096;-73
2022/08/20 12:50:24;;;;;;;8.75;1.90;;;25.30;75.80;;;;;;5062624;28;20496;-71
2022/08/20 12:52:50;;;;;;;8.77;1.70;;;25.10;75.30;;;;;;5072190;28;20096;-74
2022/08/20 12:55:18;;;;;;;2.85;0.82;;;26.30;74.60;;;;;;5071485;28;20086;-72
2022/08/20 12:57:55;;;;;;;4.40;1.20;;;25.20;74.60;;;;;;5071257;28;20017;-73
2022/08/20 13:00:24;;;;;;;5.75;1.40;;;25.50;74.80;;;;;;5071330;28;20076;-73
2022/08/20 13:02:51;;;;;;;5.32;1.35;;;26.20;74.90;;;;;;5071463;28;20032;-73
2022/08/20 13:05:16;;;;;;;4.88;1.30;;;25.50;73.90;;;;;;5062689;28;20071;-74
2022/08/20 13:07:44;;;;;;;3.80;1.55;;;25.40;72.40;;;;;;5050204;28;20025;-73
2022/08/20 13:10:15;;;;;;;4.07;0.80;;;25.00;72.80;;;;;;5051001;28;20021;-73
2022/08/20 13:12:41;;;;;;;5.75;1.73;;;25.00;71.30;;;;;;5062408;28;20021;-70
2022/08/20 13:15:07;;;;;;;5.13;1.55;;;25.80;72.70;;;;;;5071117;28;20038;-70
2022/08/20 13:17:33;;;;;;;5.25;1.65;;;25.10;72.10;;;;;;5069780;28;20016;-70
2022/08/20 13:19:58;;;;;;;7.05;1.52;;;24.60;72.60;;;;;;5062380;28;20028;-69
2022/08/20 13:22:24;;;;;;;3.63;1.60;;;25.30;72.90;;;;;;5064170;28;20029;-69
2022/08/20 13:24:49;;;;;;;4.93;1.10;;;24.70;72.40;;;;;;5068154;28;20162;-70
2022/08/20 13:27:17;;;;;;;5.32;1.33;;;25.00;72.30;;;;;;5062332;28;20064;-69
2022/08/20 13:29:51;;;;;;;8.75;1.70;;;26.80;73.50;;;;;;5051147;28;20040;-70
2022/08/20 13:32:17;;;;;;;4.97;1.45;;;25.00;72.70;;;;;;5050676;28;20025;-70
2022/08/20 13:34:43;;;;;;;6.85;1.90;;;25.00;72.20;;;;;;5049865;28;20085;-69
2022/08/20 13:37:24;;;;;;;7.53;1.73;;;25.10;71.50;;;;;;5050756;28;20021;-70
2022/08/20 13:39:50;;;;;;;5.07;1.42;;;25.00;72.20;;;;;;5051155;28;20049;-70
2022/08/20 13:42:15;;;;;;;6.65;1.48;;;25.20;71.90;;;;;;5061916;28;20381;-70
2022/08/20 13:44:42;;;;;;;6.93;1.30;;;25.20;71.60;;;;;;5050918;28;20052;-70
2022/08/20 13:47:34;;;;;;;5.47;1.98;;;25.50;71.90;;;;;;5050531;28;20533;-70
2022/08/20 13:50:08;;;;;;;4.00;1.35;;;25.10;70.30;;;;;;5062664;28;20397;-70
2022/08/20 13:52:34;;;;;;;3.60;1.52;;;25.40;70.40;;;;;;5064636;28;20074;-71
2022/08/20 13:55:00;;;;;;;4.43;1.38;;;25.40;72.00;;;;;;5058870;28;20111;-72
2022/08/20 13:57:26;;;;;;;7.60;1.10;;;25.80;72.00;;;;;;5050391;28;20024;-71
2022/08/20 13:59:54;;;;;;;5.18;1.58;;;25.40;71.60;;;;;;5050456;28;20044;-72
2022/08/20 14:02:21;;;;;;;5.40;1.48;;;25.60;71.90;;;;;;5061517;28;20173;-71
2022/08/20 14:04:47;;;;;;;6.60;1.27;;;26.00;71.40;;;;;;5065611;28;20025;-70
2022/08/20 14:07:26;;;;;;;5.65;1.45;;;26.20;71.30;;;;;;5056167;28;20024;-72
2022/08/20 14:09:56;;;;;;;3.78;1.35;;;26.30;69.90;;;;;;5050002;28;20021;-70
2022/08/20 14:12:24;;;;;;;2.75;1.13;;;26.30;71.00;;;;;;5060409;28;20020;-70
2022/08/20 14:14:50;;;;;;;6.85;1.90;;;26.60;70.40;;;;;;5066736;28;20104;-71
2022/08/20 14:17:34;;;;;;;5.68;1.48;;;26.20;69.30;;;;;;5061037;28;20497;-71
2022/08/20 14:20:01;;;;;;;;;;;24.20;66.80;;;;;;5055698;28;20183;-70
2022/08/20 14:22:27;;;;;;;4.90;1.40;;;26.10;70.20;;;;;;5057281;28;19915;-70
2022/08/20 14:24:53;;;;;;;6.30;1.80;;;25.80;68.90;;;;;;5054414;28;20033;-70
2022/08/20 14:27:21;;;;;;;8.50;1.77;;;26.10;68.80;;;;;;5050886;28;20382;-71
2022/08/20 14:29:48;;;;;;;8.65;1.67;;;26.30;69.50;;;;;;5056871;28;20025;-69
2022/08/20 14:32:15;;;;;;;6.80;1.63;;;26.80;70.60;;;;;;5049345;28;20033;-69
2022/08/20 14:34:41;;;;;;;4.38;0.85;;;25.60;70.40;;;;;;5041339;28;20508;-70
2022/08/20 14:37:12;;;;;;;9.20;2.28;;;25.50;70.70;;;;;;5049885;28;20061;-70
2022/08/20 14:39:39;;;;;;;5.03;1.65;;;25.60;71.20;;;;;;5049494;28;20478;-71
2022/08/20 14:42:05;;;;;;;6.70;1.52;;;25.90;70.20;;;;;;5049647;28;20094;-71
2022/08/20 14:44:30;;;;;;;5.82;1.50;;;25.90;70.10;;;;;;5049449;28;20469;-71
2022/08/20 14:46:56;;;;;;;5.78;1.40;;;25.90;69.90;;;;;;5049201;28;20021;-71
2022/08/20 14:49:21;;;;;;;6.53;2.03;;;25.80;70.00;;;;;;5048833;28;20528;-71
2022/08/20 14:51:47;;;;;;;6.88;1.60;;;25.70;70.60;;;;;;5048949;28;20017;-71
2022/08/20 14:54:12;;;;;;;2.38;0.93;;;25.90;71.20;;;;;;5048140;28;20571;-71
2022/08/20 14:56:38;;;;;;;6.03;1.48;;;25.40;71.40;;;;;;5050192;28;20493;-71
2022/08/20 14:59:03;;;;;;;4.32;1.50;;;25.50;71.40;;;;;;5049431;28;20049;-71
2022/08/20 15:01:29;;;;;;;5.05;1.52;;;25.60;71.20;;;;;;5053945;28;20249;-74
2022/08/20 15:03:55;;;;;;;6.20;1.80;;;25.40;71.00;;;;;;5051310;28;20061;-73
2022/08/20 15:06:20;;;;;;;7.88;1.70;;;25.50;70.50;;;;;;5049071;28;20535;-71
2022/08/20 15:08:46;;;;;;;4.85;1.30;;;25.20;70.40;;;;;;5049004;28;20084;-72
2022/08/20 15:11:12;;;;;;;3.55;1.20;;;26.30;71.10;;;;;;5048990;28;20470;-73
2022/08/20 15:13:37;;;;;;;6.05;1.20;;;25.70;71.10;;;;;;5063277;28;20478;-72
2022/08/20 15:16:03;;;;;;;5.07;1.30;;;25.60;70.20;;;;;;5061795;28;20035;-72
2022/08/20 15:18:29;;;;;;;9.13;1.80;;;25.50;70.30;;;;;;5063793;28;20037;-72
2022/08/20 15:20:54;;;;;;;4.20;1.33;;;25.60;70.40;;;;;;5063420;28;20033;-72
2022/08/20 15:23:20;;;;;;;7.05;1.42;;;25.60;70.80;;;;;;5059702;28;20024;-72
2022/08/20 15:25:46;;;;;;;4.82;1.98;;;25.60;71.00;;;;;;5062767;28;20473;-72
2022/08/20 15:28:11;;;;;;;6.45;1.42;;;25.30;71.40;;;;;;5054704;28;20478;-71
2022/08/20 15:30:39;;;;;;;4.93;1.20;;;25.50;72.00;;;;;;5049427;28;20108;-72
2022/08/20 15:33:05;;;;;;;5.00;1.55;;;26.70;73.00;;;;;;5061031;28;20025;-72
2022/08/20 15:35:30;;;;;;;6.55;1.92;;;26.10;72.30;;;;;;5050274;28;20021;-73
2022/08/20 15:37:58;;;;;;;6.20;1.58;;;25.30;72.10;;;;;;5048153;28;20355;-72
2022/08/20 15:40:25;;;;;;;6.93;1.85;;;25.50;72.50;;;;;;5048296;28;20465;-72
2022/08/20 15:42:51;;;;;;;5.50;1.50;;;25.60;72.40;;;;;;5048185;28;20025;-72
2022/08/20 15:45:16;;;;;;;5.60;2.00;;;25.60;71.90;;;;;;5048488;28;20513;-71
2022/08/20 15:48:11;;;;;;;6.90;2.17;;;25.70;72.20;;;;;;5052245;28;20567;-72
2022/08/20 15:50:50;;;;;;;6.43;1.30;;;25.70;72.20;;;;;;5052463;28;20381;-72
2022/08/20 15:53:34;;;;;;;7.65;1.73;;;25.40;74.20;;;;;;5051975;28;20104;-72
2022/08/20 15:56:23;;;;;;;10.27;2.72;;;25.20;73.60;;;;;;5051547;28;20032;-72
2022/08/20 15:59:18;;;;;;;6.97;1.85;;;25.10;75.90;;;;;;5052593;28;20493;-71
2022/08/20 16:02:12;;;;;;;4.82;1.65;;;25.10;74.90;;;;;;5052984;28;20420;-71
2022/08/20 16:04:49;;;;;;;6.55;1.70;;;25.20;75.00;;;;;;5052991;28;20024;-72
2022/08/20 16:07:57;;;;;;;4.65;1.52;;;25.30;75.30;;;;;;5051935;28;20066;-72
2022/08/20 16:10:34;;;;;;;5.90;1.90;;;25.10;75.70;;;;;;5029893;28;20041;-72
2022/08/20 16:13:07;;;;;;;5.40;1.33;;;24.80;75.80;;;;;;5017405;28;20041;-72
2022/08/20 16:15:39;;;;;;;5.20;1.50;;;24.80;77.70;;;;;;5030123;28;20108;-72
2022/08/20 16:18:14;;;;;;;5.20;1.45;;;25.50;78.60;;;;;;5030289;28;20029;-72
2022/08/20 16:20:43;;;;;;;8.25;1.88;;;24.50;79.00;;;;;;5029826;28;20037;-72
2022/08/20 16:23:12;;;;;;;5.50;1.90;;;24.30;78.90;;;;;;5030166;28;20033;-72
2022/08/20 16:25:52;;;;;;;6.53;2.72;;;25.30;79.70;;;;;;5030430;28;20104;-71
2022/08/20 16:28:26;;;;;;;8.75;2.85;;;24.40;78.10;;;;;;5029707;28;20086;-72
2022/08/20 16:31:06;;;;;;;8.85;1.50;;;24.10;78.20;;;;;;5030015;28;20097;-72
2022/08/20 16:33:38;;;;;;;10.55;4.20;;;24.00;80.40;;;;;;5027773;28;20555;-71
2022/08/20 16:36:21;;;;;;;7.57;2.28;;;24.10;80.70;;;;;;5018285;28;20025;-71
2022/08/20 16:38:57;;;;;;;7.22;1.67;;;22.50;78.90;;;;;;5029982;28;20080;-72
2022/08/20 16:41:39;;;;;;;6.22;1.92;;;24.30;81.30;;;;;;5029310;28;20042;-72
2022/08/20 16:44:35;;;;;;;3.25;1.58;;;24.00;81.20;;;;;;5029543;28;20049;-72
2022/08/20 16:47:10;;;;;;;3.38;1.60;;;23.80;79.90;;;;;;5042052;28;20087;-72
2022/08/20 16:49:41;;;;;;;6.00;1.85;;;24.00;80.10;;;;;;5051339;28;20025;-71
2022/08/20 16:52:07;;;;;;;3.22;1.45;;;23.90;81.70;;;;;;5051698;28;20163;-71
2022/08/20 16:54:32;;;;;;;7.43;2.17;;;23.90;81.30;;;;;;5051660;28;20112;-71
2022/08/20 16:57:04;;;;;;;7.57;2.30;;;24.10;81.20;;;;;;5051689;28;20025;-72
2022/08/20 16:59:31;;;;;;;8.25;1.67;;;23.90;81.80;;;;;;5050134;28;20053;-72
2022/08/20 17:02:07;;;;;;;4.80;1.80;;;24.10;81.60;;;;;;5051729;28;20028;-72
2022/08/20 17:04:46;;;;;;;4.57;1.30;;;24.00;80.40;;;;;;5050881;28;20013;-72
2022/08/20 17:07:12;;;;;;;4.78;1.58;;;23.90;80.40;;;;;;5067199;28;20031;-71
2022/08/20 17:09:42;;;;;;;5.65;1.75;;;24.50;82.00;;;;;;5065671;28;20017;-71
2022/08/20 17:12:19;;;;;;;4.38;1.80;;;24.00;82.60;;;;;;5066724;28;20115;-71
2022/08/20 17:14:50;;;;;;;5.22;1.77;;;23.60;83.10;;;;;;5067589;28;20017;-72
2022/08/20 17:17:25;;;;;;;5.38;1.77;;;23.60;82.90;;;;;;5062167;28;20452;-71
2022/08/20 17:20:13;;;;;;;3.85;1.75;;;23.60;83.20;;;;;;5058858;28;20393;-72
2022/08/20 17:22:43;;;;;;;6.88;1.58;;;23.40;83.20;;;;;;5066465;28;20044;-73
2022/08/20 17:25:36;;;;;;;5.68;1.70;;;23.40;83.70;;;;;;5067543;28;20025;-72
2022/08/20 17:28:15;;;;;;;5.82;1.88;;;23.30;84.50;;;;;;5053742;28;20036;-71
2022/08/20 17:30:41;;;;;;;5.45;1.85;;;23.20;83.40;;;;;;5051344;28;20387;-72
2022/08/20 17:33:19;;;;;;;7.50;1.85;;;23.10;84.40;;;;;;5050436;28;20017;-71
2022/08/20 17:35:53;;;;;;;9.43;4.82;;;23.20;83.70;;;;;;5051098;28;20036;-72
2022/08/20 17:38:48;;;;;;;3.63;2.20;;;23.90;85.70;;;;;;5050873;28;20041;-72
2022/08/20 17:41:28;;;;;;;4.85;2.50;;;23.10;83.70;;;;;;5050497;28;20036;-71
2022/08/20 17:44:00;;;;;;;4.93;1.73;;;22.80;85.40;;;;;;5050784;28;20070;-71
2022/08/20 17:46:28;;;;;;;4.65;1.65;;;22.80;85.60;;;;;;5050513;28;20028;-71
2022/08/20 17:48:55;;;;;;;2.78;1.38;;;22.90;85.60;;;;;;5056081;28;20131;-72
2022/08/20 17:51:30;;;;;;;3.97;1.33;;;23.50;85.90;;;;;;5050261;28;20033;-71
2022/08/20 17:54:08;;;;;;;4.78;1.40;;;22.80;86.10;;;;;;5050657;28;20021;-71
2022/08/20 17:56:38;;;;;;;5.03;1.50;;;22.50;86.20;;;;;;5050363;28;20044;-72
2022/08/20 17:59:35;;;;;;;6.88;2.25;;;22.50;86.60;;;;;;5050007;28;20128;-71
2022/08/20 18:02:02;;;;;;;6.22;1.60;;;22.50;86.10;;;;;;5041598;28;20064;-71
2022/08/20 18:04:29;;;;;;;8.23;1.60;;;22.40;86.90;;;;;;5050042;28;20083;-71
2022/08/20 18:07:13;;;;;;;5.03;1.55;;;22.30;87.60;;;;;;5047596;28;20098;-71
2022/08/20 18:10:04;;;;;;;5.82;1.30;;;22.10;86.40;;;;;;5049818;28;20032;-71
2022/08/20 18:12:33;;;;;;;6.93;1.45;;;22.30;86.90;;;;;;5061212;28;20067;-71
2022/08/20 18:15:16;;;;;;;4.03;1.13;;;22.10;88.30;;;;;;5068630;28;20070;-71
2022/08/20 18:18:01;;;;;;;6.50;1.85;;;22.00;87.10;;;;;;5070315;28;20035;-71
2022/08/20 18:20:47;;;;;;;7.75;1.88;;;22.10;87.70;;;;;;5034999;28;20037;-71
2022/08/20 18:23:25;;;;;;;4.00;1.63;;;21.90;87.90;;;;;;5053438;28;20033;-70
2022/08/20 18:25:59;;;;;;;5.70;2.20;;;21.90;87.00;;;;;;5052334;28;20386;-72
2022/08/20 18:28:38;;;;;;;5.25;1.50;;;21.90;89.70;;;;;;5051575;28;20382;-71
2022/08/20 18:31:07;;;;;;;4.53;1.40;;;21.70;88.30;;;;;;5069559;28;20024;-71
2022/08/20 18:33:40;;;;;;;3.55;1.23;;;21.60;89.80;;;;;;5069729;28;20056;-72
2022/08/20 18:36:18;;;;;;;3.53;1.52;;;21.70;90.20;;;;;;5065970;28;20029;-71
2022/08/20 18:39:22;;;;;;;2.90;1.30;;;21.60;90.40;;;;;;5053159;28;20055;-71
2022/08/20 18:42:14;;;;;;;;;;;21.50;89.50;;;;;;5065244;28;20021;-71
2022/08/20 18:44:41;;;;;;;4.07;1.33;;;21.40;89.70;;;;;;5038092;28;19905;-71
2022/08/20 18:47:28;;;;;;;4.85;1.80;;;21.20;90.40;;;;;;5069025;28;20036;-71
2022/08/20 18:50:06;;;;;;;5.43;1.85;;;21.40;90.00;;;;;;5068064;28;20028;-71
2022/08/20 18:52:41;;;;;;;4.38;2.13;;;21.30;90.80;;;;;;5051004;28;20017;-71
2022/08/20 18:55:11;;;;;;;6.88;2.30;;;21.10;90.90;;;;;;5067908;28;20146;-71
2022/08/20 18:57:50;;;;;;;4.57;1.70;;;20.90;90.90;;;;;;5068176;28;20021;-71
2022/08/20 19:00:18;;;;;;;4.45;1.75;;;21.00;90.90;;;;;;5062485;28;20135;-71
2022/08/20 19:03:01;;;;;;;3.15;2.28;;;21.80;91.20;;;;;;5050339;28;20025;-71
2022/08/20 19:05:44;;;;;;;5.63;1.77;;;20.80;91.40;;;;;;5047942;28;20098;-71
2022/08/20 19:08:14;;;;;;;3.22;1.60;;;20.80;90.70;;;;;;5042540;28;20013;-71
2022/08/20 19:11:09;;;;;;;3.35;2.15;;;20.80;91.40;;;;;;5049428;28;20037;-71
2022/08/20 19:14:07;;;;;;;5.05;1.70;;;20.70;90.50;;;;;;5050468;28;20052;-70
2022/08/20 19:16:42;;;;;;;5.40;1.55;;;20.50;92.00;;;;;;5054706;28;20474;-70
2022/08/20 19:19:16;;;;;;;5.00;1.73;;;20.60;92.00;;;;;;5069048;28;20044;-69
2022/08/20 19:21:42;;;;;;;4.75;1.50;;;20.40;92.30;;;;;;5072675;28;20054;-70
2022/08/20 19:24:13;;;;;;;4.47;2.30;;;20.10;92.20;;;;;;5073305;28;20465;-70
2022/08/20 19:26:42;;;;;;;3.30;1.50;;;20.30;92.50;;;;;;5072204;28;20021;-72
2022/08/20 19:29:14;;;;;;;4.65;1.55;;;20.80;92.90;;;;;;5072835;28;20032;-70
2022/08/20 19:31:40;;;;;;;5.85;1.48;;;20.10;93.20;;;;;;5072520;28;20610;-71
2022/08/20 19:34:19;;;;;;;4.63;1.85;;;19.90;93.10;;;;;;5064235;28;20066;-71
2022/08/20 19:36:45;;;;;;;6.57;1.60;;;19.90;93.70;;;;;;5064009;28;20028;-71
2022/08/20 19:39:17;;;;;;;4.25;1.73;;;19.80;93.50;;;;;;5067253;28;20513;-71
2022/08/20 19:41:55;;;;;;;4.90;1.10;;;19.80;94.10;;;;;;5066510;28;20024;-71
2022/08/20 19:44:39;;;;;;;5.30;1.75;;;19.70;93.60;;;;;;5057419;28;20385;-71
2022/08/20 19:47:12;;;;;;;5.75;1.50;;;19.60;94.60;;;;;;5063638;28;20029;-71
2022/08/20 19:49:56;;;;;;;5.80;1.48;;;19.70;94.70;;;;;;5053074;28;20029;-71
2022/08/20 19:52:31;;;;;;;5.03;1.48;;;19.50;94.10;;;;;;5049864;28;20017;-71
2022/08/20 19:54:57;;;;;;;6.57;1.15;;;19.40;93.80;;;;;;5052460;28;20021;-71
2022/08/20 19:57:25;;;;;;;4.45;1.95;;;19.40;94.90;;;;;;5052133;28;20032;-71
2022/08/20 19:59:54;;;;;;;2.78;1.33;;;19.50;95.20;;;;;;5052168;28;20560;-71
2022/08/20 20:02:22;;;;;;;7.53;2.00;;;19.30;95.30;;;;;;5051889;28;20024;-71
2022/08/20 20:04:48;;;;;;;7.30;1.35;;;19.30;95.40;;;;;;5052527;28;20547;-71
2022/08/20 20:07:24;;;;;;;3.15;1.20;;;19.10;95.30;;;;;;5051977;28;20104;-71
2022/08/20 20:09:54;;;;;;;2.63;1.40;;;19.10;94.90;;;;;;5051926;28;20510;-71
2022/08/20 20:12:20;;;;;;;6.82;1.60;;;19.10;95.80;;;;;;5061423;28;20016;-71
2022/08/20 20:14:48;;;;;;;9.07;1.55;;;19.00;95.60;;;;;;5069569;28;20110;-71
2022/08/20 20:17:20;;;;;;;4.53;1.35;;;19.10;95.80;;;;;;5072030;28;20063;-71
2022/08/20 20:19:47;;;;;;;3.78;1.45;;;19.10;96.10;;;;;;5058247;28;20036;-71
2022/08/20 20:22:26;;;;;;;4.40;1.40;;;18.80;95.90;;;;;;5071758;28;20016;-71
2022/08/20 20:25:17;;;;;;;5.32;1.60;;;18.80;95.80;;;;;;5072441;28;20460;-71
2022/08/20 20:28:19;;;;;;;3.15;1.10;;;18.80;96.60;;;;;;5071993;28;20032;-71
2022/08/20 20:30:45;;;;;;;4.60;1.30;;;18.70;96.10;;;;;;5046357;28;20039;-71
2022/08/20 20:33:21;;;;;;;6.72;2.25;;;18.70;96.60;;;;;;5071733;28;20024;-71
2022/08/20 20:35:46;;;;;;;6.07;1.60;;;18.70;96.20;;;;;;5045580;28;20017;-71
2022/08/20 20:38:24;;;;;;;4.38;1.65;;;18.70;96.70;;;;;;5071713;28;20509;-71
2022/08/20 20:40:53;;;;;;;4.07;1.42;;;18.60;97.10;;;;;;5072375;28;20013;-71
2022/08/20 20:43:29;;;;;;;4.90;1.60;;;18.40;97.20;;;;;;5071235;28;20066;-71
2022/08/20 20:46:12;;;;;;;3.80;1.73;;;18.30;96.80;;;;;;5060503;28;20439;-72
2022/08/20 20:48:59;;;;;;;7.15;2.13;;;18.20;97.60;;;;;;5071908;28;20017;-71
2022/08/20 20:51:29;;;;;;;4.40;1.98;;;18.50;98.00;;;;;;5071268;28;20473;-71
2022/08/20 20:54:00;;;;;;;5.07;2.30;;;18.10;97.90;;;;;;5071920;28;20104;-71
2022/08/20 20:56:41;;;;;;;6.45;2.30;;;18.20;98.00;;;;;;5071072;28;20449;-71
2022/08/20 20:59:09;;;;;;;6.65;2.85;;;18.10;98.30;;;;;;5071257;28;20148;-71
2022/08/20 21:01:37;;;;;;;5.22;2.05;;;18.00;98.10;;;;;;5071527;28;20023;-71
2022/08/20 21:04:02;;;;;;;6.05;2.08;;;18.00;98.30;;;;;;5071404;28;20111;-71
2022/08/20 21:06:28;;;;;;;4.85;2.30;;;17.90;98.20;;;;;;5071155;28;20549;-71
2022/08/20 21:08:57;;;;;;;4.32;2.20;;;17.70;98.30;;;;;;5065319;28;20029;-71
2022/08/20 21:11:23;;;;;;;7.05;2.58;;;17.90;98.60;;;;;;5052223;28;20025;-71
2022/08/20 21:13:49;;;;;;;5.53;2.28;;;17.90;98.60;;;;;;5071605;28;20016;-71
2022/08/20 21:16:15;;;;;;;3.78;2.03;;;17.80;98.50;;;;;;5062055;28;20504;-71
2022/08/20 21:18:41;;;;;;;7.03;2.88;;;17.80;98.70;;;;;;5055954;28;20044;-71
2022/08/20 21:21:08;;;;;;;4.78;2.13;;;17.90;98.70;;;;;;5071126;28;20028;-71
2022/08/20 21:23:34;;;;;;;5.57;2.67;;;17.80;98.90;;;;;;5070942;28;20020;-71
2022/08/20 21:26:00;;;;;;;6.40;2.70;;;17.80;98.90;;;;;;5070915;28;20354;-71
2022/08/20 21:28:27;;;;;;;4.88;2.88;;;17.80;98.90;;;;;;5070603;28;20477;-71
2022/08/20 21:30:53;;;;;;;4.13;2.78;;;17.80;99.20;;;;;;5071199;28;20048;-71
2022/08/20 21:33:19;;;;;;;9.18;3.72;;;17.50;99.00;;;;;;5070558;28;20021;-71
2022/08/20 21:35:45;;;;;;;6.60;3.17;;;17.50;99.00;;;;;;5070977;28;20106;-71
2022/08/20 21:38:11;;;;;;;6.00;2.83;;;17.70;99.20;;;;;;5070895;28;20075;-71
2022/08/20 21:40:36;;;;;;;6.82;3.40;;;17.50;99.20;;;;;;5070211;28;20060;-71
2022/08/20 21:43:03;;;;;;;6.47;3.22;;;17.50;99.30;;;;;;5070193;28;20534;-71
2022/08/20 21:45:28;;;;;;;4.97;2.78;;;17.40;99.50;;;;;;5057843;28;20107;-71
2022/08/20 21:47:56;;;;;;;4.53;2.63;;;17.30;99.40;;;;;;5069592;28;20124;-72
2022/08/20 21:50:21;;;;;;;3.70;2.80;;;17.40;99.70;;;;;;5070359;28;20024;-71
2022/08/20 21:52:48;;;;;;;7.43;3.20;;;17.40;99.90;;;;;;5064003;28;20028;-71
2022/08/20 21:55:14;;;;;;;3.38;2.47;;;17.40;99.90;;;;;;5052598;28;20052;-71
2022/08/20 21:57:41;;;;;;;5.15;3.17;;;17.30;99.90;;;;;;5050376;28;20517;-71
2022/08/20 22:00:20;;;;;;;7.22;3.65;;;17.30;99.90;;;;;;5050035;28;20095;-71
2022/08/20 22:02:47;;;;;;;6.22;3.00;;;17.40;99.80;;;;;;5050570;28;20486;-71
2022/08/20 22:05:14;;;;;;;6.57;2.97;;;17.20;99.90;;;;;;5049983;28;20021;-71
2022/08/20 22:07:42;;;;;;;6.32;3.60;;;17.20;99.90;;;;;;5050435;28;20493;-71
2022/08/20 22:10:09;;;;;;;3.75;3.13;;;16.10;99.90;;;;;;5049862;28;20021;-71
2022/08/20 22:12:34;;;;;;;4.53;2.92;;;17.20;99.90;;;;;;5061938;28;20021;-71
2022/08/20 22:15:00;;;;;;;7.22;3.90;;;17.10;99.90;;;;;;5063046;28;20441;-71
2022/08/20 22:17:26;;;;;;;7.80;3.47;;;17.10;99.90;;;;;;5069945;28;20431;-71
2022/08/20 22:19:51;;;;;;;3.78;2.60;;;17.30;99.90;;;;;;5069972;28;20020;-71
2022/08/20 22:22:18;;;;;;;7.03;3.15;;;17.10;99.90;;;;;;5069561;28;20377;-72
2022/08/20 22:24:44;;;;;;;8.02;3.15;;;17.00;99.90;;;;;;5069719;28;20028;-73
2022/08/20 22:27:10;;;;;;;7.70;3.78;;;16.90;99.90;;;;;;5069445;28;20031;-71
2022/08/20 22:29:36;;;;;;;7.05;4.03;;;16.90;99.90;;;;;;5069916;28;20028;-71
2022/08/20 22:32:02;;;;;;;7.65;3.53;;;17.00;99.90;;;;;;5070038;28;20029;-71
2022/08/20 22:34:30;;;;;;;6.43;3.42;;;16.70;99.90;;;;;;5069778;28;20043;-71
2022/08/20 22:36:58;;;;;;;5.20;3.63;;;16.80;99.90;;;;;;5069988;28;20090;-71
2022/08/20 22:39:23;;;;;;;6.75;3.65;;;16.90;99.90;;;;;;5069737;28;20431;-71
2022/08/20 22:41:49;;;;;;;7.38;4.03;;;16.90;99.90;;;;;;5069737;28;20035;-71
2022/08/20 22:44:14;;;;;;;6.88;4.30;;;16.90;99.90;;;;;;5065533;28;20025;-71
2022/08/20 22:46:40;;;;;;;6.32;4.03;;;16.70;99.90;;;;;;5062408;28;20029;-71
2022/08/20 22:49:10;;;;;;;4.25;3.75;;;16.80;99.90;;;;;;5066745;28;20496;-70
2022/08/20 22:51:37;;;;;;;6.32;3.70;;;16.70;99.90;;;;;;5048710;28;20024;-71
2022/08/20 22:54:06;;;;;;;7.05;3.70;;;16.70;99.90;;;;;;5054423;28;20554;-71
2022/08/20 22:56:31;;;;;;;5.72;3.72;;;16.60;99.90;;;;;;5048862;28;20025;-71
2022/08/20 22:58:57;;;;;;;6.47;3.90;;;16.70;99.90;;;;;;5049159;28;20065;-71
2022/08/20 23:01:24;;;;;;;4.68;3.33;;;16.60;99.90;;;;;;5049085;28;20131;-71
2022/08/20 23:03:51;;;;;;;7.00;4.20;;;16.50;99.90;;;;;;5049611;28;20033;-71
2022/08/20 23:06:17;;;;;;;5.95;3.85;;;16.50;99.90;;;;;;5048508;28;20592;-70
2022/08/20 23:08:43;;;;;;;7.63;3.67;;;16.50;99.90;;;;;;5049088;28;20064;-70
2022/08/20 23:11:10;;;;;;;8.63;4.03;;;16.40;99.90;;;;;;5063160;28;20462;-71
2022/08/20 23:13:35;;;;;;;7.97;4.47;;;16.40;99.90;;;;;;5048177;28;20032;-71
2022/08/20 23:16:01;;;;;;;5.93;4.07;;;16.40;99.90;;;;;;5049227;28;20025;-71
2022/08/20 23:18:27;;;;;;;8.90;3.97;;;16.30;99.90;;;;;;5049037;28;20048;-71
2022/08/20 23:20:55;;;;;;;9.95;4.30;;;16.40;99.90;;;;;;5049179;28;20496;-71
2022/08/20 23:23:21;;;;;;;9.77;5.18;;;16.40;99.90;;;;;;5049217;28;20021;-71
2022/08/20 23:25:48;;;;;;;6.97;4.15;;;16.20;99.90;;;;;;5049118;28;20025;-71
2022/08/20 23:28:17;;;;;;;9.05;5.25;;;16.10;99.90;;;;;;5049151;28;20028;-71
2022/08/20 23:30:43;;;;;;;9.25;4.20;;;16.20;99.90;;;;;;5049331;28;20025;-71
2022/08/20 23:33:09;;;;;;;12.82;4.82;;;16.20;99.90;;;;;;5049234;28;20029;-71
2022/08/20 23:35:38;;;;;;;8.18;4.72;;;16.00;99.90;;;;;;5048893;28;20025;-71
2022/08/20 23:38:05;;;;;;;6.85;4.55;;;16.10;99.90;;;;;;5049311;28;20104;-70
2022/08/20 23:40:31;;;;;;;6.30;4.78;;;16.30;99.90;;;;;;5048944;28;20044;-71
2022/08/20 23:42:58;;;;;;;7.97;5.57;;;16.20;99.90;;;;;;5049288;28;20082;-71
2022/08/20 23:45:24;;;;;;;4.32;3.72;;;16.10;99.90;;;;;;5048895;28;20077;-71
2022/08/20 23:47:50;;;;;;;6.43;4.03;;;16.20;99.90;;;;;;5049176;28;20017;-71
2022/08/20 23:50:19;;;;;;;7.03;4.70;;;16.10;99.90;;;;;;5048470;28;20108;-71
2022/08/20 23:52:44;;;;;;;5.85;4.05;;;16.00;99.90;;;;;;5048982;28;20035;-71
2022/08/20 23:55:10;;;;;;;5.72;4.18;;;16.00;99.90;;;;;;5048885;28;20033;-71
2022/08/20 23:57:36;;;;;;;6.93;4.22;;;16.00;99.90;;;;;;5049093;28;20347;-71
